KTHV/THV METAR and TAF weather

Enter ICAO airport designator
Station Type Date Time Source
KTHV METAR 2022/01/29 09:53 UTC NOAA

KTHV 290953Z AUTO 35010G19KT 5SM -SN OVC034 M08/M14 A2989 RMK AO2 SNB40 SLP129 P0000 T10781139


Station Type Date Time Source
KTHV Decoded METAR 2022/01/29 09:53 UTC NOAA

YORK AIRPORT, PA, United States (KTHV) 39-55N 076-53W 144M
Jan 29, 2022 - 04:53 AM EST / 2022.01.29 0953 UTC
Wind: from the N (350 degrees) at 12 MPH (10 KT) gusting to 22 MPH (19 KT):0
Visibility: 5 mile(s):0
Sky conditions: overcast
Weather: light snow
Precipitation last hour: A trace
Temperature: 18.0 F (-7.8 C)
Windchill: 5 F (-15 C):1
Dew Point: 7.0 F (-13.9 C)
Relative Humidity: 61%
Pressure (altimeter): 29.89 in. Hg (1012 hPa)
ob: KTHV 290953Z AUTO 35010G19KT 5SM -SN OVC034 M08/M14 A2989 RMK AO2 SNB40 SLP129 P0000 T10781139
cycle: 10

Station Type Date Time Source
KTHV TAF UTC NOAA

Error!

Example: see airport list